Time;durP1;ratioP1;P1;durP2;ratioP2;P2;SDS_P1;SDS_P2;PMS_P1;PMS_P2;Temp;Humidity;BMP_temperature;BMP_pressure;BME280_temperature;BME280_humidity;BME280_pressure;Samples;Min_cycle;Max_cycle;Signal;HPM_P1;HPM_P2
2021/03/19 00:01:25;;;;;;;17.23;14.53;;;2.10;92.20;;;;;;5018138;28;20208;-78
2021/03/19 00:03:53;;;;;;;18.10;15.40;;;2.10;92.30;;;;;;5031348;28;20435;-77
2021/03/19 00:06:19;;;;;;;18.20;15.87;;;2.00;92.00;;;;;;5034383;28;20454;-75
2021/03/19 00:08:46;;;;;;;17.70;15.80;;;2.00;92.40;;;;;;5025016;28;20509;-75
2021/03/19 00:11:12;;;;;;;17.43;15.13;;;1.90;92.70;;;;;;5020724;28;20459;-76
2021/03/19 00:13:39;;;;;;;20.90;15.73;;;1.80;93.80;;;;;;5023807;28;20567;-76
2021/03/19 00:16:07;;;;;;;18.77;16.43;;;1.80;94.20;;;;;;5025185;28;20470;-76
2021/03/19 00:18:34;;;;;;;21.93;18.20;;;1.80;94.90;;;;;;5034638;28;20435;-76
2021/03/19 00:21:02;;;;;;;21.20;16.90;;;1.70;95.90;;;;;;5032079;28;20464;-75
2021/03/19 00:23:29;;;;;;;19.35;16.77;;;1.80;96.10;;;;;;5021839;28;20491;-75
2021/03/19 00:25:55;;;;;;;20.10;16.83;;;1.70;96.70;;;;;;5017266;28;20905;-74
2021/03/19 00:28:22;;;;;;;20.50;17.23;;;1.60;97.60;;;;;;5013326;28;20534;-75
2021/03/19 00:30:49;;;;;;;22.63;18.10;;;1.60;98.10;;;;;;5016143;28;20482;-75
2021/03/19 00:33:16;;;;;;;23.73;18.87;;;1.50;98.50;;;;;;5013889;28;20477;-74
2021/03/19 00:35:43;;;;;;;24.07;17.87;;;1.50;99.90;;;;;;5013145;28;20459;-75
2021/03/19 00:38:11;;;;;;;23.93;18.00;;;1.40;99.90;;;;;;5014820;28;20528;-74
2021/03/19 00:40:39;;;;;;;24.80;19.47;;;1.30;99.90;;;;;;5013889;28;20459;-75
2021/03/19 00:43:11;;;;;;;23.02;18.70;;;1.30;99.90;;;;;;5009386;28;20449;-75
2021/03/19 00:45:37;;;;;;;26.30;20.33;;;1.20;99.90;;;;;;5010107;28;20271;-77
2021/03/19 00:48:05;;;;;;;23.00;18.70;;;1.10;99.90;;;;;;5009781;28;20493;-75
2021/03/19 00:50:33;;;;;;;31.90;21.40;;;1.50;99.90;;;;;;5003266;28;20532;-76
2021/03/19 00:53:01;;;;;;;24.70;18.95;;;1.00;99.90;;;;;;5014732;28;21184;-76
2021/03/19 00:55:29;;;;;;;27.95;21.08;;;0.90;99.90;;;;;;5007432;28;20655;-75
2021/03/19 00:57:55;;;;;;;26.93;20.23;;;0.90;99.90;;;;;;5011194;28;20199;-75
2021/03/19 01:00:24;;;;;;;27.93;20.10;;;0.90;99.90;;;;;;5016320;28;20471;-76
2021/03/19 01:02:51;;;;;;;27.90;20.60;;;0.90;99.90;;;;;;5011272;28;20527;-75
2021/03/19 01:05:25;;;;;;;27.53;21.27;;;0.90;99.90;;;;;;5007582;28;20469;-75
2021/03/19 01:07:52;;;;;;;31.17;21.77;;;0.90;99.90;;;;;;5011158;28;20474;-75
2021/03/19 01:10:22;;;;;;;30.20;21.47;;;0.90;99.90;;;;;;5008953;28;20478;-74
2021/03/19 01:12:49;;;;;;;32.03;22.03;;;1.00;99.90;;;;;;5007654;28;20448;-76
2021/03/19 01:15:16;;;;;;;32.43;23.27;;;1.10;99.90;;;;;;5003567;28;20462;-74
2021/03/19 01:17:43;;;;;;;30.83;21.77;;;1.20;99.90;;;;;;5012825;28;20456;-75
2021/03/19 01:20:12;;;;;;;31.53;23.07;;;1.30;99.90;;;;;;5009585;28;20197;-75
2021/03/19 01:22:39;;;;;;;31.33;23.20;;;1.40;99.90;;;;;;5011634;28;20474;-75
2021/03/19 01:25:08;;;;;;;26.73;21.07;;;1.40;99.90;;;;;;5003259;28;20505;-75
2021/03/19 01:27:34;;;;;;;32.77;22.13;;;1.40;99.90;;;;;;5009341;28;20455;-75
2021/03/19 01:30:04;;;;;;;34.23;22.37;;;1.50;99.90;;;;;;5007969;28;20574;-76
2021/03/19 01:32:31;;;;;;;34.73;23.17;;;1.50;99.90;;;;;;5009942;28;20466;-75
2021/03/19 01:34:58;;;;;;;32.37;23.10;;;1.50;99.90;;;;;;5010926;28;20455;-75
2021/03/19 01:37:24;;;;;;;28.47;21.67;;;1.60;99.90;;;;;;5011570;28;20485;-76
2021/03/19 01:39:54;;;;;;;35.03;24.10;;;1.60;99.90;;;;;;5011710;28;20586;-74
2021/03/19 01:42:23;;;;;;;30.50;23.33;;;1.70;99.90;;;;;;5003313;28;20463;-74
2021/03/19 01:45:35;;;;;;;30.90;23.33;;;1.70;99.90;;;;;;5008953;28;20494;-74
2021/03/19 01:48:38;;;;;;;27.93;21.97;;;1.80;99.90;;;;;;5000889;28;20468;-76
2021/03/19 01:51:42;;;;;;;29.87;21.57;;;1.80;99.30;;;;;;5005410;28;20470;-75
2021/03/19 01:54:46;;;;;;;29.17;22.23;;;1.80;98.00;;;;;;5005708;28;20824;-75
2021/03/19 01:57:49;;;;;;;30.83;22.27;;;1.90;98.20;;;;;;5007525;28;20463;-75
2021/03/19 02:00:53;;;;;;;31.57;20.93;;;1.90;97.10;;;;;;5014246;28;20822;-74
2021/03/19 02:03:58;;;;;;;30.92;20.15;;;1.90;95.80;;;;;;5014404;28;20456;-76
2021/03/19 02:07:02;;;;;;;27.47;21.53;;;1.90;95.20;;;;;;5011278;28;20215;-75
2021/03/19 02:10:06;;;;;;;27.73;20.00;;;1.90;94.90;;;;;;5012831;28;20483;-74
2021/03/19 02:13:11;;;;;;;28.10;20.93;;;1.90;94.90;;;;;;5017603;28;20465;-76
2021/03/19 02:16:15;;;;;;;27.63;21.43;;;1.90;94.80;;;;;;5012212;28;20486;-74
2021/03/19 02:19:19;;;;;;;31.23;21.80;;;1.90;95.10;;;;;;5017347;28;20458;-76
2021/03/19 02:22:23;;;;;;;27.70;21.73;;;1.90;96.00;;;;;;5022101;28;20506;-75
2021/03/19 02:25:26;;;;;;;28.33;19.87;;;1.90;95.80;;;;;;5012177;28;20957;-74
2021/03/19 02:28:30;;;;;;;27.50;21.10;;;1.80;95.50;;;;;;5014618;28;21064;-76
2021/03/19 02:31:12;;;;;;;28.30;22.30;;;1.80;95.50;;;;;;5020588;28;20545;-75
2021/03/19 02:33:50;;;;;;;29.70;22.30;;;1.90;95.60;;;;;;5016994;28;20462;-75
2021/03/19 02:36:19;;;;;;;26.80;21.10;;;1.90;95.50;;;;;;5020011;28;20450;-77
2021/03/19 02:38:45;;;;;;;30.87;22.47;;;1.90;96.10;;;;;;5012963;28;20521;-75
2021/03/19 02:41:12;;;;;;;28.53;22.17;;;2.00;95.30;;;;;;5010170;28;20543;-75
2021/03/19 02:43:38;;;;;;;28.10;22.40;;;2.00;94.90;;;;;;5009843;28;20451;-75
2021/03/19 02:46:05;;;;;;;25.57;20.97;;;1.90;94.60;;;;;;5011523;28;20451;-74
2021/03/19 02:48:32;;;;;;;26.70;20.10;;;1.90;95.00;;;;;;5009018;28;20471;-76
2021/03/19 02:50:59;;;;;;;24.53;20.83;;;1.90;95.00;;;;;;5010228;28;20486;-74
2021/03/19 02:53:29;;;;;;;28.92;22.33;;;1.90;94.60;;;;;;5009175;28;20467;-76
2021/03/19 02:55:57;;;;;;;26.80;20.40;;;2.00;94.80;;;;;;5005319;28;20208;-73
2021/03/19 02:58:24;;;;;;;26.23;21.13;;;2.00;95.10;;;;;;5008861;28;20449;-75
2021/03/19 03:00:55;;;;;;;27.63;22.83;;;2.00;94.50;;;;;;5011656;28;20208;-74
2021/03/19 03:03:22;;;;;;;30.87;21.10;;;2.00;94.10;;;;;;5005160;28;20451;-75
2021/03/19 03:05:49;;;;;;;24.97;20.10;;;2.00;94.70;;;;;;5012696;28;20455;-74
2021/03/19 03:08:20;;;;;;;27.00;21.67;;;2.00;94.60;;;;;;5010797;28;20455;-78
2021/03/19 03:10:48;;;;;;;31.30;21.00;;;2.00;95.20;;;;;;5012402;28;20486;-78
2021/03/19 03:13:14;;;;;;;27.90;22.63;;;1.80;95.80;;;;;;5019400;28;20442;-77
2021/03/19 03:15:42;;;;;;;29.75;22.63;;;1.80;97.70;;;;;;5026118;28;20472;-77
2021/03/19 03:18:09;;;;;;;28.60;22.40;;;1.70;98.60;;;;;;5032915;28;20200;-79
2021/03/19 03:20:38;;;;;;;32.37;24.13;;;1.70;99.50;;;;;;5020314;28;20517;-79
2021/03/19 03:23:07;;;;;;;32.25;22.05;;;1.70;99.70;;;;;;5018881;28;20476;-77
2021/03/19 03:25:35;;;;;;;33.60;22.87;;;1.70;99.90;;;;;;5015458;28;20223;-78
2021/03/19 03:28:01;;;;;;;30.38;22.60;;;1.80;99.90;;;;;;5015931;28;20963;-78
2021/03/19 03:30:30;;;;;;;29.53;22.97;;;1.80;99.90;;;;;;5013649;28;20227;-78
2021/03/19 03:32:58;;;;;;;29.20;22.83;;;1.80;99.90;;;;;;5019561;28;20466;-77
2021/03/19 03:35:26;;;;;;;33.43;24.53;;;1.80;99.90;;;;;;5025329;28;20469;-77
2021/03/19 03:37:53;;;;;;;32.30;23.57;;;1.70;99.90;;;;;;5019843;28;20455;-78
2021/03/19 03:40:26;;;;;;;31.67;23.40;;;1.70;99.90;;;;;;5018948;28;20485;-78
2021/03/19 03:42:54;;;;;;;29.70;22.73;;;1.60;99.90;;;;;;5021156;28;20501;-78
2021/03/19 03:45:21;;;;;;;31.43;24.20;;;1.50;99.90;;;;;;5019467;28;20459;-79
2021/03/19 03:47:48;;;;;;;33.93;24.40;;;1.40;99.90;;;;;;5014570;28;20461;-78
2021/03/19 03:50:16;;;;;;;30.40;23.37;;;1.40;99.90;;;;;;5016023;28;20467;-78
2021/03/19 03:52:43;;;;;;;31.87;24.80;;;1.40;99.90;;;;;;5016101;28;20482;-77
2021/03/19 03:55:11;;;;;;;36.20;25.37;;;1.40;99.90;;;;;;5016637;28;20827;-78
2021/03/19 03:57:38;;;;;;;35.73;25.37;;;1.40;99.90;;;;;;5031393;28;20478;-79
2021/03/19 04:00:08;;;;;;;35.10;25.80;;;1.40;99.90;;;;;;5020635;28;20432;-78
2021/03/19 04:02:35;;;;;;;31.07;23.40;;;1.30;99.90;;;;;;5029912;28;20523;-77
2021/03/19 04:05:03;;;;;;;36.33;25.10;;;1.40;99.90;;;;;;5015250;28;20961;-78
2021/03/19 04:07:29;;;;;;;36.97;24.77;;;1.30;99.90;;;;;;5015931;28;20985;-77
2021/03/19 04:09:56;;;;;;;38.13;25.67;;;1.30;99.90;;;;;;5011213;28;20474;-79
2021/03/19 04:12:22;;;;;;;35.73;24.93;;;1.20;99.90;;;;;;5012852;28;20888;-78
2021/03/19 04:14:49;;;;;;;38.33;25.75;;;1.20;99.90;;;;;;5011811;28;20451;-78
2021/03/19 04:17:24;;;;;;;36.63;25.10;;;1.20;99.90;;;;;;5012168;28;20193;-78
2021/03/19 04:19:51;;;;;;;38.07;26.67;;;1.20;99.90;;;;;;5012770;28;20994;-77
2021/03/19 04:22:17;;;;;;;37.70;25.77;;;1.20;99.90;;;;;;5017004;28;20554;-78
2021/03/19 04:24:45;;;;;;;37.17;26.13;;;1.10;99.90;;;;;;5014316;28;20462;-76
2021/03/19 04:27:14;;;;;;;39.70;27.90;;;1.10;99.90;;;;;;5012986;28;20456;-77
2021/03/19 04:29:41;;;;;;;38.30;25.90;;;1.10;99.90;;;;;;5014560;28;20474;-77
2021/03/19 04:32:07;;;;;;;42.60;27.50;;;1.00;99.90;;;;;;5015207;28;20462;-78
2021/03/19 04:34:36;;;;;;;45.10;26.63;;;1.10;99.90;;;;;;5019522;28;20459;-78
2021/03/19 04:37:04;;;;;;;37.03;26.23;;;1.10;99.90;;;;;;5015731;28;20458;-77
2021/03/19 04:39:31;;;;;;;47.10;29.00;;;1.10;99.90;;;;;;5015463;28;20487;-78
2021/03/19 04:42:00;;;;;;;38.97;26.38;;;1.10;99.90;;;;;;5015942;28;21335;-78
2021/03/19 04:44:30;;;;;;;36.70;25.53;;;1.00;99.90;;;;;;5014025;28;20208;-77
2021/03/19 04:46:57;;;;;;;44.20;29.40;;;1.10;99.90;;;;;;5011587;28;20515;-77
2021/03/19 04:49:24;;;;;;;40.17;27.23;;;1.10;99.90;;;;;;5015540;28;20467;-78
2021/03/19 04:51:51;;;;;;;41.03;28.27;;;1.00;99.90;;;;;;5009887;28;20452;-78
2021/03/19 04:54:18;;;;;;;43.67;28.90;;;1.10;99.90;;;;;;5008804;28;20465;-77
2021/03/19 04:56:44;;;;;;;40.30;26.77;;;1.10;99.90;;;;;;5014910;28;20444;-77
2021/03/19 04:59:11;;;;;;;39.65;27.30;;;1.10;99.90;;;;;;5016977;28;20455;-79
2021/03/19 05:01:47;;;;;;;54.23;31.60;;;1.20;99.90;;;;;;5017147;28;20203;-77
2021/03/19 05:04:14;;;;;;;39.40;26.87;;;1.00;99.90;;;;;;5013970;28;20484;-78
2021/03/19 05:06:41;;;;;;;40.72;26.73;;;1.00;99.90;;;;;;5015941;28;20466;-77
2021/03/19 05:09:08;;;;;;;39.55;25.50;;;1.00;99.90;;;;;;5022603;28;20277;-80
2021/03/19 05:11:36;;;;;;;42.70;28.33;;;1.00;99.90;;;;;;5014516;28;20221;-78
2021/03/19 05:14:03;;;;;;;43.33;28.73;;;;;;;;;;5010905;28;20455;-77
2021/03/19 05:16:30;;;;;;;42.60;26.97;;;1.00;99.90;;;;;;5012902;28;20458;-78
2021/03/19 05:18:56;;;;;;;46.80;30.57;;;1.10;99.90;;;;;;5014540;28;20463;-79
2021/03/19 05:21:23;;;;;;;45.23;29.23;;;1.10;99.90;;;;;;5012155;28;20968;-77
2021/03/19 05:23:49;;;;;;;47.00;30.93;;;1.20;99.90;;;;;;5006989;28;20486;-77
2021/03/19 05:26:17;;;;;;;43.90;29.77;;;1.30;99.90;;;;;;5013576;28;20850;-78
2021/03/19 05:28:43;;;;;;;44.77;30.60;;;1.40;99.90;;;;;;5012073;28;20455;-78
2021/03/19 05:31:09;;;;;;;46.33;30.77;;;1.40;99.90;;;;;;5010237;28;20462;-79
2021/03/19 05:33:45;;;;;;;47.92;31.83;;;1.40;99.90;;;;;;5012803;28;20839;-78
2021/03/19 05:36:13;;;;;;;44.23;29.13;;;1.50;99.90;;;;;;5015514;28;20219;-79
2021/03/19 05:38:39;;;;;;;43.03;28.90;;;1.50;99.90;;;;;;5018166;28;20519;-78
2021/03/19 05:41:08;;;;;;;43.90;30.50;;;1.50;99.90;;;;;;5014885;28;20200;-78
2021/03/19 05:43:38;;;;;;;49.63;31.40;;;1.50;99.90;;;;;;5019742;28;21119;-79
2021/03/19 05:46:08;;;;;;;50.58;33.65;;;1.40;99.90;;;;;;5017761;28;20451;-78
2021/03/19 05:48:51;;;;;;;46.83;29.87;;;1.40;99.90;;;;;;5011409;28;20204;-78
2021/03/19 05:51:31;;;;;;;48.80;30.70;;;1.40;99.90;;;;;;5009760;28;20541;-77
2021/03/19 05:53:59;;;;;;;44.93;28.97;;;1.40;99.90;;;;;;5009976;28;20447;-77
2021/03/19 05:56:29;;;;;;;43.03;30.38;;;1.30;99.90;;;;;;5021645;28;20800;-79
2021/03/19 05:58:56;;;;;;;46.60;31.20;;;1.40;99.90;;;;;;5014525;28;20206;-78
2021/03/19 06:01:24;;;;;;;48.92;30.95;;;1.40;99.90;;;;;;5010519;28;20200;-77
2021/03/19 06:03:51;;;;;;;44.03;29.97;;;1.50;99.90;;;;;;5007083;28;20460;-78
2021/03/19 06:06:18;;;;;;;42.30;28.80;;;1.30;99.90;;;;;;5021144;28;20457;-78
2021/03/19 06:08:47;;;;;;;45.87;31.47;;;1.30;99.90;;;;;;5019702;28;20476;-79
2021/03/19 06:11:18;;;;;;;48.20;32.47;;;1.20;99.90;;;;;;5025017;28;20454;-78
2021/03/19 06:13:49;;;;;;;52.63;34.27;;;1.30;99.90;;;;;;5032757;28;20450;-80
2021/03/19 06:16:29;;;;;;;47.13;30.60;;;1.40;99.90;;;;;;5028609;28;20454;-78
2021/03/19 06:18:58;;;;;;;47.20;31.63;;;1.50;99.90;;;;;;5027002;28;20458;-78
2021/03/19 06:21:28;;;;;;;54.00;31.70;;;1.50;99.90;;;;;;5020736;28;20461;-78
2021/03/19 06:24:15;;;;;;;48.90;31.70;;;1.60;99.90;;;;;;5015721;28;20507;-77
2021/03/19 06:26:43;;;;;;;49.43;33.67;;;1.50;99.90;;;;;;5009558;28;20592;-79
2021/03/19 06:29:20;;;;;;;48.90;31.47;;;1.70;99.90;;;;;;5012795;28;20471;-77
2021/03/19 06:32:13;;;;;;;45.80;31.70;;;1.60;99.90;;;;;;5014140;28;20842;-77
2021/03/19 06:34:53;;;;;;;44.67;29.95;;;1.50;99.90;;;;;;5012473;28;20455;-77
2021/03/19 06:37:27;;;;;;;46.90;30.87;;;1.60;99.90;;;;;;5009998;28;20214;-77
2021/03/19 06:39:55;;;;;;;47.50;32.40;;;1.70;99.90;;;;;;5006446;28;20487;-78
2021/03/19 06:42:34;;;;;;;51.67;36.65;;;1.90;99.90;;;;;;5002252;28;20471;-75
2021/03/19 06:45:18;;;;;;;45.67;32.15;;;1.80;99.90;;;;;;5008355;28;20200;-76
2021/03/19 06:47:48;;;;;;;58.30;30.63;;;2.20;99.90;;;;;;5012928;28;20202;-75
2021/03/19 06:50:34;;;;;;;47.35;31.38;;;2.10;98.40;;;;;;5017407;28;20465;-76
2021/03/19 06:53:18;;;;;;;44.00;29.53;;;2.00;96.30;;;;;;5014354;28;20230;-76
2021/03/19 06:55:50;;;;;;;41.20;27.23;;;2.40;98.90;;;;;;5015482;28;20521;-76
2021/03/19 06:58:33;;;;;;;42.87;27.77;;;2.40;94.00;;;;;;5014218;28;20466;-77
2021/03/19 07:00:59;;;;;;;38.40;26.93;;;2.20;95.60;;;;;;5008267;28;20491;-78
2021/03/19 07:03:53;;;;;;;38.53;26.80;;;2.40;97.10;;;;;;5018657;28;20459;-80
2021/03/19 07:06:51;;;;;;;52.05;26.48;;;2.50;97.20;;;;;;5014831;28;20450;-79
2021/03/19 07:09:31;;;;;;;42.67;25.47;;;2.80;95.10;;;;;;5016283;28;20227;-77
2021/03/19 07:12:08;;;;;;;31.77;23.83;;;2.60;92.00;;;;;;5016713;28;20463;-76
2021/03/19 07:15:02;;;;;;;31.17;21.57;;;2.30;90.80;;;;;;5008656;28;20970;-78
2021/03/19 07:17:52;;;;;;;30.98;22.75;;;2.30;93.70;;;;;;5015524;28;20790;-76
2021/03/19 07:20:35;;;;;;;28.13;19.50;;;2.40;93.60;;;;;;5013238;28;20208;-78
2021/03/19 07:23:12;;;;;;;19.87;15.23;;;2.50;93.90;;;;;;5011792;28;20993;-75
2021/03/19 07:26:07;;;;;;;22.50;17.13;;;2.20;90.10;;;;;;5011338;28;20464;-77
2021/03/19 07:29:03;;;;;;;25.43;17.97;;;2.10;91.10;;;;;;5008887;28;20455;-79
2021/03/19 07:31:57;;;;;;;25.37;17.80;;;2.10;91.50;;;;;;5009047;28;20887;-76
2021/03/19 07:35:49;;;;;;;20.57;15.17;;;2.30;91.00;;;;;;5023754;27;20595;-78
2021/03/19 07:38:50;;;;;;;19.87;15.30;;;2.50;92.30;;;;;;5025731;28;20508;-78
2021/03/19 07:41:27;;;;;;;20.27;14.60;;;2.60;90.50;;;;;;5000662;28;20457;-80
2021/03/19 07:44:20;;;;;;;17.70;12.80;;;2.20;91.90;;;;;;5032316;28;20459;-79
2021/03/19 07:46:57;;;;;;;18.50;13.17;;;2.20;93.20;;;;;;5034098;28;21178;-75
2021/03/19 07:49:52;;;;;;;17.80;12.27;;;2.30;92.30;;;;;;5033610;28;20496;-78
2021/03/19 07:52:30;;;;;;;17.33;13.47;;;2.00;92.10;;;;;;5025702;28;20523;-77
2021/03/19 07:55:04;;;;;;;20.37;14.27;;;2.40;93.20;;;;;;5024179;28;20477;-74
2021/03/19 07:57:38;;;;;;;15.40;12.13;;;2.40;92.80;;;;;;5028858;28;20455;-73
2021/03/19 08:00:14;;;;;;;17.40;12.37;;;2.30;92.90;;;;;;5038341;28;20450;-74
2021/03/19 08:02:54;;;;;;;16.50;13.23;;;2.40;93.10;;;;;;5029491;28;20470;-76
2021/03/19 08:05:24;;;;;;;18.60;12.20;;;2.30;94.70;;;;;;5025018;28;21027;-74
2021/03/19 08:08:00;;;;;;;18.20;12.90;;;;;;;;;;5025988;28;20482;-76
2021/03/19 08:10:29;;;;;;;20.23;13.93;;;2.60;91.10;;;;;;5024589;28;20443;-75
2021/03/19 08:13:05;;;;;;;15.57;12.60;;;2.50;90.00;;;;;;5026398;28;20578;-75
2021/03/19 08:15:40;;;;;;;16.63;13.27;;;2.10;90.10;;;;;;5027167;28;20490;-75
2021/03/19 08:18:14;;;;;;;17.10;12.57;;;2.10;91.70;;;;;;5030516;28;20454;-80
2021/03/19 08:21:00;;;;;;;15.30;13.03;;;2.50;90.10;;;;;;5030343;28;20446;-76
2021/03/19 08:23:45;;;;;;;18.47;12.83;;;2.90;87.70;;;;;;5027495;28;20466;-75
2021/03/19 08:26:18;;;;;;;16.87;12.90;;;2.70;89.20;;;;;;5017509;28;20883;-76
2021/03/19 08:28:59;;;;;;;15.00;12.07;;;2.80;94.70;;;;;;5026829;28;20463;-75
2021/03/19 08:31:34;;;;;;;18.25;16.20;;;2.70;91.80;;;;;;5026762;28;20496;-79
2021/03/19 08:34:13;;;;;;;17.53;12.90;;;3.10;89.50;;;;;;5030590;28;20227;-78
2021/03/19 08:36:42;;;;;;;16.90;12.63;;;3.20;90.30;;;;;;5016394;28;20447;-78
2021/03/19 08:39:22;;;;;;;16.03;13.57;;;2.90;88.30;;;;;;5020123;28;20446;-76
2021/03/19 08:41:51;;;;;;;18.35;16.15;;;2.90;88.00;;;;;;5022892;28;20452;-76
2021/03/19 08:44:21;;;;;;;15.50;12.70;;;2.50;87.80;;;;;;5020398;28;20193;-74
2021/03/19 08:46:50;;;;;;;15.73;12.37;;;2.90;87.50;;;;;;4999595;28;20551;-75
2021/03/19 08:49:40;;;;;;;13.60;10.73;;;2.80;87.50;;;;;;5010406;28;20574;-76
2021/03/19 08:52:28;;;;;;;14.07;10.90;;;3.00;87.30;;;;;;5007734;28;20505;-83
2021/03/19 08:55:34;;;;;;;14.13;11.60;;;2.80;87.90;;;;;;5016909;28;20479;-80
2021/03/19 08:58:45;;;;;;;15.33;10.83;;;2.90;89.50;;;;;;5020678;28;20447;-80
2021/03/19 09:01:14;;;;;;;13.87;10.33;;;2.90;82.90;;;;;;5020063;28;20495;-79
2021/03/19 09:03:53;;;;;;;14.37;10.27;;;2.90;83.40;;;;;;5017709;28;20494;-81
2021/03/19 09:06:24;;;;;;;13.70;9.93;;;2.80;82.00;;;;;;5024368;28;20440;-81
2021/03/19 09:09:01;;;;;;;12.93;9.93;;;3.70;84.60;;;;;;5027256;28;20471;-80
2021/03/19 09:11:59;;;;;;;12.70;10.70;;;3.70;80.60;;;;;;5012328;28;20963;-76
2021/03/19 09:14:36;;;;;;;12.70;8.90;;;3.60;82.40;;;;;;5003776;28;20220;-75
2021/03/19 09:17:04;;;;;;;12.13;9.57;;;3.90;78.30;;;;;;5010074;28;21038;-76
2021/03/19 09:20:02;;;;;;;14.13;10.57;;;4.00;78.90;;;;;;5011240;28;20484;-76
2021/03/19 09:22:33;;;;;;;13.73;9.77;;;3.80;77.20;;;;;;5012387;28;20488;-76
2021/03/19 09:25:34;;;;;;;11.87;8.87;;;4.40;77.20;;;;;;5008375;28;20979;-75
2021/03/19 09:28:33;;;;;;;12.73;9.63;;;3.60;74.50;;;;;;5010584;28;20494;-74
2021/03/19 09:31:03;;;;;;;11.30;9.17;;;3.40;75.30;;;;;;5005908;28;20485;-75
2021/03/19 09:34:22;;;;;;;13.40;9.90;;;3.70;75.10;;;;;;5010889;28;20513;-76
2021/03/19 09:37:24;;;;;;;13.20;10.03;;;3.70;75.50;;;;;;5003981;28;20444;-75
2021/03/19 09:40:01;;;;;;;13.20;10.10;;;3.70;74.60;;;;;;5008264;28;20641;-77
2021/03/19 09:42:50;;;;;;;10.67;9.20;;;4.20;75.70;;;;;;5013915;28;20486;-77
2021/03/19 09:45:32;;;;;;;13.23;10.50;;;4.10;75.10;;;;;;5005442;28;20462;-78
2021/03/19 09:48:22;;;;;;;15.30;11.90;;;4.10;74.90;;;;;;5006913;28;20506;-78
2021/03/19 09:51:08;;;;;;;15.30;11.07;;;4.30;76.40;;;;;;5006343;28;20502;-78
2021/03/19 09:53:38;;;;;;;13.30;11.23;;;4.70;74.60;;;;;;5014404;28;20476;-78
2021/03/19 09:56:17;;;;;;;15.70;10.70;;;5.00;74.40;;;;;;5009680;28;20448;-76
2021/03/19 09:58:46;;;;;;;16.02;13.38;;;4.80;73.50;;;;;;5020852;28;20478;-79
2021/03/19 10:01:31;;;;;;;13.73;11.73;;;3.90;71.20;;;;;;5015639;28;20298;-79
2021/03/19 10:04:02;;;;;;;14.47;11.03;;;3.90;72.00;;;;;;5012191;28;20586;-78
2021/03/19 10:06:32;;;;;;;15.03;11.57;;;4.20;71.20;;;;;;5018220;28;20462;-82
2021/03/19 10:09:15;;;;;;;13.63;11.20;;;3.90;71.90;;;;;;5012506;28;20523;-79
2021/03/19 10:12:02;;;;;;;12.57;9.90;;;4.50;71.00;;;;;;5012377;28;20463;-78
2021/03/19 10:14:33;;;;;;;14.10;10.90;;;5.10;70.70;;;;;;5012535;28;20473;-79
2021/03/19 10:17:15;;;;;;;17.13;11.93;;;5.60;71.70;;;;;;5012776;28;20456;-79
2021/03/19 10:19:46;;;;;;;14.57;10.80;;;5.00;68.10;;;;;;5009747;28;20563;-79
2021/03/19 10:22:28;;;;;;;13.40;10.40;;;5.40;69.30;;;;;;5017367;28;21014;-82
2021/03/19 10:24:55;;;;;;;13.67;10.80;;;5.20;67.20;;;;;;5013091;28;20452;-83
2021/03/19 10:27:23;;;;;;;13.03;10.27;;;5.00;67.30;;;;;;5012757;28;20464;-79
2021/03/19 10:29:51;;;;;;;14.07;11.13;;;5.10;67.20;;;;;;5009549;28;20468;-80
2021/03/19 10:32:23;;;;;;;12.77;10.17;;;4.80;67.50;;;;;;5009563;28;20464;-81
2021/03/19 10:34:55;;;;;;;14.20;11.13;;;4.30;65.00;;;;;;5014049;28;20488;-82
2021/03/19 10:37:34;;;;;;;14.97;11.67;;;4.40;65.50;;;;;;5009218;28;20567;-77
2021/03/19 10:40:06;;;;;;;13.37;10.80;;;4.30;66.50;;;;;;5005194;28;20495;-77
2021/03/19 10:42:41;;;;;;;14.20;10.20;;;4.60;66.30;;;;;;5005508;28;20453;-78
2021/03/19 10:45:18;;;;;;;12.90;9.40;;;4.90;64.20;;;;;;5009715;28;20463;-80
2021/03/19 10:47:50;;;;;;;15.20;9.97;;;4.70;63.50;;;;;;5009242;28;21002;-78
2021/03/19 10:50:23;;;;;;;11.97;8.87;;;5.20;62.30;;;;;;5005668;28;20455;-77
2021/03/19 10:52:59;;;;;;;9.50;8.03;;;5.10;62.40;;;;;;5011807;28;20483;-77
2021/03/19 10:55:30;;;;;;;9.97;8.47;;;5.60;61.90;;;;;;5005633;28;20508;-83
2021/03/19 10:58:33;;;;;;;11.13;8.50;;;5.40;63.40;;;;;;5010218;28;20488;-77
2021/03/19 11:01:00;;;;;;;10.63;8.53;;;5.20;62.70;;;;;;5008763;28;20475;-79
2021/03/19 11:03:38;;;;;;;8.93;7.53;;;5.30;62.90;;;;;;5007195;28;20469;-77
2021/03/19 11:06:08;;;;;;;12.07;9.53;;;4.60;59.50;;;;;;5013855;28;20910;-78
2021/03/19 11:08:35;;;;;;;10.70;8.63;;;4.70;59.70;;;;;;5007582;28;20460;-81
2021/03/19 11:11:02;;;;;;;13.00;11.05;;;4.70;60.50;;;;;;5018355;28;20462;-86
2021/03/19 11:13:33;;;;;;;12.53;9.80;;;4.60;60.40;;;;;;5027107;28;20231;-83
2021/03/19 11:16:04;;;;;;;11.10;9.00;;;4.70;61.00;;;;;;5030632;28;20522;-81
2021/03/19 11:18:34;;;;;;;11.80;8.70;;;4.30;60.90;;;;;;5018429;28;20455;-79
2021/03/19 11:21:04;;;;;;;12.37;9.23;;;4.30;62.20;;;;;;5023423;28;20537;-80
2021/03/19 11:23:36;;;;;;;12.57;9.87;;;4.80;62.40;;;;;;5020076;28;20468;-81
2021/03/19 11:26:24;;;;;;;13.32;9.80;;;4.80;62.50;;;;;;5015151;28;20545;-83
2021/03/19 11:35:20;;;;;;;10.40;8.40;;;4.90;60.90;;;;;;5017706;28;20483;-81
2021/03/19 11:38:05;;;;;;;11.50;10.30;;;5.00;60.20;;;;;;5019451;28;20478;-82
2021/03/19 11:41:21;;;;;;;10.43;8.17;;;5.40;59.60;;;;;;5031027;28;20213;-82
2021/03/19 11:43:59;;;;;;;10.53;8.07;;;5.00;57.60;;;;;;5024846;28;20516;-82
2021/03/19 11:59:42;;;;;;;10.90;6.87;;;6.10;55.00;;;;;;5031145;28;20545;-82
2021/03/19 12:08:40;;;;;;;10.97;6.70;;;7.70;54.00;;;;;;5016455;28;20464;-78
2021/03/19 12:16:45;;;;;;;11.53;8.83;;;5.10;57.50;;;;;;5079281;28;20458;-80
2021/03/19 12:19:19;;;;;;;8.60;7.37;;;5.00;59.00;;;;;;5081886;28;20440;-79
2021/03/19 12:21:58;;;;;;;7.60;6.80;;;5.00;59.30;;;;;;5068977;28;20457;-79
2021/03/19 12:24:25;;;;;;;10.27;7.63;;;4.80;58.90;;;;;;5062317;28;20484;-80
2021/03/19 12:26:52;;;;;;;9.17;7.23;;;4.70;58.20;;;;;;5068962;28;20533;-78
2021/03/19 12:29:19;;;;;;;12.10;7.43;;;4.60;58.40;;;;;;5056194;28;20449;-78
2021/03/19 12:31:46;;;;;;;9.00;8.10;;;5.10;59.10;;;;;;5057893;28;20470;-80
2021/03/19 12:34:20;;;;;;;7.60;6.77;;;5.10;58.30;;;;;;5070096;28;20451;-84
2021/03/19 12:37:01;;;;;;;6.90;6.17;;;5.30;58.10;;;;;;5065921;28;20454;-83
2021/03/19 12:39:28;;;;;;;6.50;5.85;;;5.10;57.70;;;;;;5066228;28;20502;-84
2021/03/19 12:41:56;;;;;;;7.57;6.43;;;5.00;57.00;;;;;;5068372;28;20236;-84
2021/03/19 12:50:50;;;;;;;5.50;5.00;;;4.90;52.50;;;;;;5060695;28;20442;-87
2021/03/19 12:53:24;;;;;;;6.70;5.40;;;5.20;53.40;;;;;;5067916;28;20474;-86
2021/03/19 12:55:52;;;;;;;5.57;5.07;;;5.10;53.20;;;;;;5076512;28;20524;-83
2021/03/19 13:01:31;;;;;;;4.77;4.33;;;5.30;53.70;;;;;;5055977;28;20482;-85
2021/03/19 13:03:59;;;;;;;5.23;4.73;;;5.30;53.80;;;;;;5067669;28;20460;-85
2021/03/19 13:06:29;;;;;;;5.33;4.50;;;5.10;52.30;;;;;;5072189;28;20530;-86
2021/03/19 13:09:03;;;;;;;5.53;5.03;;;4.90;53.60;;;;;;5067427;28;20476;-86
2021/03/19 13:11:32;;;;;;;6.00;5.40;;;5.50;55.50;;;;;;5057650;28;20459;-83
2021/03/19 13:13:59;;;;;;;5.53;4.63;;;5.10;56.20;;;;;;5042541;28;20466;-77
2021/03/19 13:16:25;;;;;;;4.27;3.87;;;5.20;57.10;;;;;;5045495;28;20458;-75
2021/03/19 13:18:52;;;;;;;4.70;4.20;;;5.10;57.90;;;;;;5041676;28;20969;-74
2021/03/19 13:21:19;;;;;;;4.90;4.37;;;4.90;58.60;;;;;;5045525;28;20961;-76
2021/03/19 13:23:45;;;;;;;5.03;3.80;;;4.80;58.80;;;;;;5037904;28;20474;-74
2021/03/19 13:26:12;;;;;;;4.87;4.27;;;4.90;58.70;;;;;;5029773;28;20471;-75
2021/03/19 13:28:38;;;;;;;4.67;4.27;;;4.80;58.10;;;;;;5038737;28;20478;-76
2021/03/19 13:31:05;;;;;;;5.00;4.50;;;4.70;58.40;;;;;;5033669;28;20450;-74
2021/03/19 13:33:32;;;;;;;6.53;4.50;;;5.00;58.50;;;;;;5031908;28;20478;-74
2021/03/19 13:36:03;;;;;;;5.10;4.33;;;5.20;59.40;;;;;;5034217;28;20459;-75
2021/03/19 13:38:32;;;;;;;4.33;3.90;;;5.10;58.90;;;;;;5030890;28;20447;-75
2021/03/19 13:41:04;;;;;;;5.63;4.00;;;4.70;58.20;;;;;;5027611;28;20455;-74
2021/03/19 13:43:35;;;;;;;4.23;3.83;;;5.30;58.50;;;;;;5022258;28;20480;-75
2021/03/19 13:46:02;;;;;;;6.20;4.10;;;4.90;58.10;;;;;;5027088;28;20976;-74
2021/03/19 13:48:29;;;;;;;5.40;4.17;;;4.80;57.50;;;;;;5031253;28;20504;-75
2021/03/19 13:50:56;;;;;;;5.07;4.53;;;4.80;57.10;;;;;;5029610;28;20538;-74
2021/03/19 13:53:24;;;;;;;5.00;4.00;;;5.10;56.60;;;;;;5031231;28;21159;-77
2021/03/19 13:55:51;;;;;;;4.93;4.07;;;5.40;56.10;;;;;;5029214;28;20835;-78
2021/03/19 13:58:21;;;;;;;5.30;4.80;;;5.10;55.80;;;;;;5040771;28;20489;-77
2021/03/19 14:00:47;;;;;;;4.10;3.77;;;5.30;55.60;;;;;;5032791;28;20298;-77